sensor_id;sensor_type;location;lat;lon;timestamp;temperature;humidity
6439;DHT22;3252;52.540;13.290;2023-04-09T00:01:39;5.90;99.90
6439;DHT22;3252;52.540;13.290;2023-04-09T00:03:41;5.80;99.90
6439;DHT22;3252;52.540;13.290;2023-04-09T00:05:44;5.70;99.90
6439;DHT22;3252;52.540;13.290;2023-04-09T00:07:46;5.70;99.90
6439;DHT22;3252;52.540;13.290;2023-04-09T00:09:48;5.70;99.90
6439;DHT22;3252;52.540;13.290;2023-04-09T00:11:51;5.60;99.90
6439;DHT22;3252;52.540;13.290;2023-04-09T00:13:53;5.60;99.90
6439;DHT22;3252;52.540;13.290;2023-04-09T00:15:56;5.50;99.90
6439;DHT22;3252;52.540;13.290;2023-04-09T00:17:59;5.40;99.90
6439;DHT22;3252;52.540;13.290;2023-04-09T00:20:01;5.40;99.90
6439;DHT22;3252;52.540;13.290;2023-04-09T00:22:03;5.40;99.90
6439;DHT22;3252;52.540;13.290;2023-04-09T00:24:06;5.30;99.90
6439;DHT22;3252;52.540;13.290;2023-04-09T00:26:09;5.30;99.90
6439;DHT22;3252;52.540;13.290;2023-04-09T00:28:12;5.30;99.90
6439;DHT22;3252;52.540;13.290;2023-04-09T00:30:14;5.30;99.90
6439;DHT22;3252;52.540;13.290;2023-04-09T00:32:36;5.30;99.90
6439;DHT22;3252;52.540;13.290;2023-04-09T00:34:40;5.20;99.90
6439;DHT22;3252;52.540;13.290;2023-04-09T00:36:42;5.20;99.90
6439;DHT22;3252;52.540;13.290;2023-04-09T00:38:44;5.20;99.90
6439;DHT22;3252;52.540;13.290;2023-04-09T00:40:48;5.10;99.90
6439;DHT22;3252;52.540;13.290;2023-04-09T00:42:51;5.10;99.90
6439;DHT22;3252;52.540;13.290;2023-04-09T00:44:53;5.10;99.90
6439;DHT22;3252;52.540;13.290;2023-04-09T00:46:57;5.00;99.90
6439;DHT22;3252;52.540;13.290;2023-04-09T00:49:02;5.00;99.90
6439;DHT22;3252;52.540;13.290;2023-04-09T00:51:04;5.00;99.90
6439;DHT22;3252;52.540;13.290;2023-04-09T00:53:07;4.90;99.90
6439;DHT22;3252;52.540;13.290;2023-04-09T00:55:10;4.90;99.90
6439;DHT22;3252;52.540;13.290;2023-04-09T00:57:14;4.90;99.90
6439;DHT22;3252;52.540;13.290;2023-04-09T00:59:16;4.90;99.90
6439;DHT22;3252;52.540;13.290;2023-04-09T01:01:19;4.90;99.90
6439;DHT22;3252;52.540;13.290;2023-04-09T01:03:21;4.80;99.90
6439;DHT22;3252;52.540;13.290;2023-04-09T01:05:30;4.80;99.90
6439;DHT22;3252;52.540;13.290;2023-04-09T01:07:46;4.80;99.90
6439;DHT22;3252;52.540;13.290;2023-04-09T01:10:00;4.70;99.90
6439;DHT22;3252;52.540;13.290;2023-04-09T01:12:13;4.80;99.90
6439;DHT22;3252;52.540;13.290;2023-04-09T01:14:23;4.80;99.90
6439;DHT22;3252;52.540;13.290;2023-04-09T01:16:28;4.80;99.90
6439;DHT22;3252;52.540;13.290;2023-04-09T01:18:38;4.80;99.90
6439;DHT22;3252;52.540;13.290;2023-04-09T01:20:48;4.80;99.90
6439;DHT22;3252;52.540;13.290;2023-04-09T01:22:58;4.70;99.90
6439;DHT22;3252;52.540;13.290;2023-04-09T01:25:06;4.70;99.90
6439;DHT22;3252;52.540;13.290;2023-04-09T01:27:16;4.70;99.90
6439;DHT22;3252;52.540;13.290;2023-04-09T01:29:43;4.80;99.90
6439;DHT22;3252;52.540;13.290;2023-04-09T01:31:55;4.80;99.90
6439;DHT22;3252;52.540;13.290;2023-04-09T01:33:59;4.80;99.90
6439;DHT22;3252;52.540;13.290;2023-04-09T01:36:04;4.80;99.90
6439;DHT22;3252;52.540;13.290;2023-04-09T01:38:07;4.80;99.90
6439;DHT22;3252;52.540;13.290;2023-04-09T01:40:10;4.80;99.90
6439;DHT22;3252;52.540;13.290;2023-04-09T01:42:15;4.80;99.90
6439;DHT22;3252;52.540;13.290;2023-04-09T01:44:18;4.80;99.90
6439;DHT22;3252;52.540;13.290;2023-04-09T01:46:23;4.70;99.90
6439;DHT22;3252;52.540;13.290;2023-04-09T01:48:27;4.70;99.90
6439;DHT22;3252;52.540;13.290;2023-04-09T01:50:30;4.70;99.90
6439;DHT22;3252;52.540;13.290;2023-04-09T01:52:33;4.70;99.90
6439;DHT22;3252;52.540;13.290;2023-04-09T01:54:35;4.70;99.90
6439;DHT22;3252;52.540;13.290;2023-04-09T01:56:42;4.70;99.90
6439;DHT22;3252;52.540;13.290;2023-04-09T01:58:44;4.70;99.90
6439;DHT22;3252;52.540;13.290;2023-04-09T02:00:48;4.70;99.90
6439;DHT22;3252;52.540;13.290;2023-04-09T02:02:58;4.60;99.90
6439;DHT22;3252;52.540;13.290;2023-04-09T02:05:04;4.60;99.90
6439;DHT22;3252;52.540;13.290;2023-04-09T02:07:11;4.60;99.90
6439;DHT22;3252;52.540;13.290;2023-04-09T02:09:17;4.60;99.90
6439;DHT22;3252;52.540;13.290;2023-04-09T02:11:22;4.50;99.90
6439;DHT22;3252;52.540;13.290;2023-04-09T02:13:27;4.50;99.90
6439;DHT22;3252;52.540;13.290;2023-04-09T02:15:31;4.40;99.90
6439;DHT22;3252;52.540;13.290;2023-04-09T02:17:35;4.50;99.90
6439;DHT22;3252;52.540;13.290;2023-04-09T02:19:39;4.40;99.90
6439;DHT22;3252;52.540;13.290;2023-04-09T02:21:42;4.40;99.90
6439;DHT22;3252;52.540;13.290;2023-04-09T02:23:45;4.30;99.90
6439;DHT22;3252;52.540;13.290;2023-04-09T02:25:47;4.30;99.90
6439;DHT22;3252;52.540;13.290;2023-04-09T02:27:50;4.30;99.90
6439;DHT22;3252;52.540;13.290;2023-04-09T02:29:53;4.30;99.90
6439;DHT22;3252;52.540;13.290;2023-04-09T02:31:55;4.30;99.90
6439;DHT22;3252;52.540;13.290;2023-04-09T02:33:57;4.30;99.90
6439;DHT22;3252;52.540;13.290;2023-04-09T02:36:01;4.20;99.90
6439;DHT22;3252;52.540;13.290;2023-04-09T02:38:04;4.20;99.90
6439;DHT22;3252;52.540;13.290;2023-04-09T02:40:07;4.20;99.90
6439;DHT22;3252;52.540;13.290;2023-04-09T02:42:09;4.20;99.90
6439;DHT22;3252;52.540;13.290;2023-04-09T02:44:11;4.10;99.90
6439;DHT22;3252;52.540;13.290;2023-04-09T02:46:14;4.00;99.90
6439;DHT22;3252;52.540;13.290;2023-04-09T02:48:16;4.00;99.90
6439;DHT22;3252;52.540;13.290;2023-04-09T02:50:19;4.00;99.90
6439;DHT22;3252;52.540;13.290;2023-04-09T02:52:26;4.00;99.90
6439;DHT22;3252;52.540;13.290;2023-04-09T02:54:28;4.00;99.90
6439;DHT22;3252;52.540;13.290;2023-04-09T02:56:31;3.90;99.90
6439;DHT22;3252;52.540;13.290;2023-04-09T02:58:33;3.90;99.90
6439;DHT22;3252;52.540;13.290;2023-04-09T03:00:35;3.70;99.90
6439;DHT22;3252;52.540;13.290;2023-04-09T03:02:38;3.70;99.90
6439;DHT22;3252;52.540;13.290;2023-04-09T03:04:40;3.70;99.90
6439;DHT22;3252;52.540;13.290;2023-04-09T03:06:44;3.70;99.90
6439;DHT22;3252;52.540;13.290;2023-04-09T03:08:48;3.70;99.90
6439;DHT22;3252;52.540;13.290;2023-04-09T03:10:50;3.60;99.90
6439;DHT22;3252;52.540;13.290;2023-04-09T03:12:52;3.60;99.90
6439;DHT22;3252;52.540;13.290;2023-04-09T03:14:55;3.60;99.90
6439;DHT22;3252;52.540;13.290;2023-04-09T03:17:00;3.50;99.90
6439;DHT22;3252;52.540;13.290;2023-04-09T03:19:03;3.50;99.90
6439;DHT22;3252;52.540;13.290;2023-04-09T03:21:05;3.60;99.90
6439;DHT22;3252;52.540;13.290;2023-04-09T03:23:10;3.50;99.90
6439;DHT22;3252;52.540;13.290;2023-04-09T03:25:18;3.50;99.90
6439;DHT22;3252;52.540;13.290;2023-04-09T03:27:22;3.50;99.90
6439;DHT22;3252;52.540;13.290;2023-04-09T03:29:28;3.40;99.90
6439;DHT22;3252;52.540;13.290;2023-04-09T03:31:31;3.50;99.90
6439;DHT22;3252;52.540;13.290;2023-04-09T03:33:34;3.60;99.90
6439;DHT22;3252;52.540;13.290;2023-04-09T03:35:36;3.60;99.90
6439;DHT22;3252;52.540;13.290;2023-04-09T03:37:39;3.60;99.90
6439;DHT22;3252;52.540;13.290;2023-04-09T03:39:48;3.60;99.90
6439;DHT22;3252;52.540;13.290;2023-04-09T03:41:52;3.60;99.90
6439;DHT22;3252;52.540;13.290;2023-04-09T03:43:55;3.70;99.90
6439;DHT22;3252;52.540;13.290;2023-04-09T03:46:00;3.70;99.90
6439;DHT22;3252;52.540;13.290;2023-04-09T03:48:03;3.80;99.90
6439;DHT22;3252;52.540;13.290;2023-04-09T03:50:06;3.80;99.90
6439;DHT22;3252;52.540;13.290;2023-04-09T03:52:20;3.80;99.90
6439;DHT22;3252;52.540;13.290;2023-04-09T03:54:30;3.80;99.90
6439;DHT22;3252;52.540;13.290;2023-04-09T03:56:33;3.90;99.90
6439;DHT22;3252;52.540;13.290;2023-04-09T03:58:38;3.90;99.90
6439;DHT22;3252;52.540;13.290;2023-04-09T04:00:42;3.90;99.90
6439;DHT22;3252;52.540;13.290;2023-04-09T04:03:06;4.00;99.90
6439;DHT22;3252;52.540;13.290;2023-04-09T04:05:29;4.00;99.90
6439;DHT22;3252;52.540;13.290;2023-04-09T04:07:33;4.10;99.90
6439;DHT22;3252;52.540;13.290;2023-04-09T04:09:42;4.00;99.90
6439;DHT22;3252;52.540;13.290;2023-04-09T04:11:48;4.00;99.90
6439;DHT22;3252;52.540;13.290;2023-04-09T04:13:54;4.00;99.90
6439;DHT22;3252;52.540;13.290;2023-04-09T04:15:57;4.00;99.90
6439;DHT22;3252;52.540;13.290;2023-04-09T04:18:01;4.10;99.90
6439;DHT22;3252;52.540;13.290;2023-04-09T04:20:22;4.10;99.90
6439;DHT22;3252;52.540;13.290;2023-04-09T04:22:33;4.10;99.90
6439;DHT22;3252;52.540;13.290;2023-04-09T04:24:36;4.20;99.90
6439;DHT22;3252;52.540;13.290;2023-04-09T04:26:39;4.10;99.90
6439;DHT22;3252;52.540;13.290;2023-04-09T04:28:42;4.10;99.90
6439;DHT22;3252;52.540;13.290;2023-04-09T04:30:50;4.20;99.90
6439;DHT22;3252;52.540;13.290;2023-04-09T04:32:53;4.20;99.90
6439;DHT22;3252;52.540;13.290;2023-04-09T04:34:56;4.20;99.90
6439;DHT22;3252;52.540;13.290;2023-04-09T04:37:00;4.10;99.90
6439;DHT22;3252;52.540;13.290;2023-04-09T04:39:05;4.20;99.90
6439;DHT22;3252;52.540;13.290;2023-04-09T04:41:20;4.20;99.90
6439;DHT22;3252;52.540;13.290;2023-04-09T04:43:29;4.20;99.90
6439;DHT22;3252;52.540;13.290;2023-04-09T04:45:33;4.20;99.90
6439;DHT22;3252;52.540;13.290;2023-04-09T04:47:43;4.30;99.90
6439;DHT22;3252;52.540;13.290;2023-04-09T04:49:45;4.30;99.90
6439;DHT22;3252;52.540;13.290;2023-04-09T04:51:47;4.40;99.90
6439;DHT22;3252;52.540;13.290;2023-04-09T04:53:51;4.40;99.90
6439;DHT22;3252;52.540;13.290;2023-04-09T04:55:53;4.40;99.90
6439;DHT22;3252;52.540;13.290;2023-04-09T04:57:59;4.50;99.90
6439;DHT22;3252;52.540;13.290;2023-04-09T05:00:08;4.50;99.90
6439;DHT22;3252;52.540;13.290;2023-04-09T05:02:11;4.50;99.90
6439;DHT22;3252;52.540;13.290;2023-04-09T05:04:28;4.50;99.90
6439;DHT22;3252;52.540;13.290;2023-04-09T05:06:31;4.60;99.90
6439;DHT22;3252;52.540;13.290;2023-04-09T05:08:37;4.60;99.90
6439;DHT22;3252;52.540;13.290;2023-04-09T05:10:40;4.60;99.90
6439;DHT22;3252;52.540;13.290;2023-04-09T05:12:44;4.60;99.90
6439;DHT22;3252;52.540;13.290;2023-04-09T05:14:54;4.60;99.90
6439;DHT22;3252;52.540;13.290;2023-04-09T05:16:56;4.60;99.90
6439;DHT22;3252;52.540;13.290;2023-04-09T05:19:04;4.70;99.90
6439;DHT22;3252;52.540;13.290;2023-04-09T05:21:08;4.70;99.90
6439;DHT22;3252;52.540;13.290;2023-04-09T05:23:11;4.70;99.90
6439;DHT22;3252;52.540;13.290;2023-04-09T05:25:21;4.70;99.90
6439;DHT22;3252;52.540;13.290;2023-04-09T05:27:23;4.70;99.90
6439;DHT22;3252;52.540;13.290;2023-04-09T05:29:32;4.80;99.90
6439;DHT22;3252;52.540;13.290;2023-04-09T05:31:34;4.80;99.90
6439;DHT22;3252;52.540;13.290;2023-04-09T05:33:40;4.90;99.90
6439;DHT22;3252;52.540;13.290;2023-04-09T05:35:50;4.90;99.90
6439;DHT22;3252;52.540;13.290;2023-04-09T05:37:54;5.00;99.90
6439;DHT22;3252;52.540;13.290;2023-04-09T05:39:57;5.00;99.90
6439;DHT22;3252;52.540;13.290;2023-04-09T05:41:59;5.00;99.90
6439;DHT22;3252;52.540;13.290;2023-04-09T05:44:06;5.10;99.90
6439;DHT22;3252;52.540;13.290;2023-04-09T05:46:11;5.10;99.90
6439;DHT22;3252;52.540;13.290;2023-04-09T05:48:14;5.20;99.90
6439;DHT22;3252;52.540;13.290;2023-04-09T05:50:17;5.20;99.90
6439;DHT22;3252;52.540;13.290;2023-04-09T05:52:20;5.20;99.90
6439;DHT22;3252;52.540;13.290;2023-04-09T05:54:26;5.20;99.90
6439;DHT22;3252;52.540;13.290;2023-04-09T05:56:28;5.30;99.90
6439;DHT22;3252;52.540;13.290;2023-04-09T05:58:31;5.30;99.90
6439;DHT22;3252;52.540;13.290;2023-04-09T06:00:33;5.30;99.90
6439;DHT22;3252;52.540;13.290;2023-04-09T06:02:36;5.40;99.90
6439;DHT22;3252;52.540;13.290;2023-04-09T06:04:39;5.50;99.90
6439;DHT22;3252;52.540;13.290;2023-04-09T06:06:42;5.50;99.90
6439;DHT22;3252;52.540;13.290;2023-04-09T06:08:44;5.50;99.90
6439;DHT22;3252;52.540;13.290;2023-04-09T06:10:48;5.50;99.90
6439;DHT22;3252;52.540;13.290;2023-04-09T06:12:50;5.60;99.90
6439;DHT22;3252;52.540;13.290;2023-04-09T06:14:53;5.60;99.90
6439;DHT22;3252;52.540;13.290;2023-04-09T06:16:57;5.70;99.90
6439;DHT22;3252;52.540;13.290;2023-04-09T06:19:00;5.70;99.90
6439;DHT22;3252;52.540;13.290;2023-04-09T06:21:02;5.70;99.90
6439;DHT22;3252;52.540;13.290;2023-04-09T06:23:04;5.80;99.90
6439;DHT22;3252;52.540;13.290;2023-04-09T06:25:07;5.80;99.90
6439;DHT22;3252;52.540;13.290;2023-04-09T06:27:11;5.80;99.90
6439;DHT22;3252;52.540;13.290;2023-04-09T06:29:13;5.80;99.90
6439;DHT22;3252;52.540;13.290;2023-04-09T06:31:15;5.90;99.90
6439;DHT22;3252;52.540;13.290;2023-04-09T06:33:17;5.90;99.90
6439;DHT22;3252;52.540;13.290;2023-04-09T06:35:20;5.90;99.90
6439;DHT22;3252;52.540;13.290;2023-04-09T06:37:22;6.00;99.90
6439;DHT22;3252;52.540;13.290;2023-04-09T06:39:24;6.10;99.90
6439;DHT22;3252;52.540;13.290;2023-04-09T06:41:26;6.10;99.90
6439;DHT22;3252;52.540;13.290;2023-04-09T06:43:30;6.20;99.90
6439;DHT22;3252;52.540;13.290;2023-04-09T06:45:32;6.20;99.90
6439;DHT22;3252;52.540;13.290;2023-04-09T06:47:35;6.30;99.90
6439;DHT22;3252;52.540;13.290;2023-04-09T06:49:37;6.40;99.90
6439;DHT22;3252;52.540;13.290;2023-04-09T06:51:39;6.40;99.90
6439;DHT22;3252;52.540;13.290;2023-04-09T06:53:41;6.40;99.90
6439;DHT22;3252;52.540;13.290;2023-04-09T06:55:44;6.50;99.90
6439;DHT22;3252;52.540;13.290;2023-04-09T06:57:46;6.40;99.90
6439;DHT22;3252;52.540;13.290;2023-04-09T06:59:50;6.50;99.90
6439;DHT22;3252;52.540;13.290;2023-04-09T07:01:52;6.50;99.90
6439;DHT22;3252;52.540;13.290;2023-04-09T07:03:54;6.50;99.90
6439;DHT22;3252;52.540;13.290;2023-04-09T07:05:56;6.60;99.90
6439;DHT22;3252;52.540;13.290;2023-04-09T07:07:59;6.40;99.90
6439;DHT22;3252;52.540;13.290;2023-04-09T07:10:01;6.30;99.90
6439;DHT22;3252;52.540;13.290;2023-04-09T07:12:04;6.30;99.90
6439;DHT22;3252;52.540;13.290;2023-04-09T07:14:06;6.20;99.90
6439;DHT22;3252;52.540;13.290;2023-04-09T07:16:10;6.30;99.90
6439;DHT22;3252;52.540;13.290;2023-04-09T07:18:12;6.30;99.90
6439;DHT22;3252;52.540;13.290;2023-04-09T07:20:14;6.30;99.90
6439;DHT22;3252;52.540;13.290;2023-04-09T07:22:16;6.30;99.90
6439;DHT22;3252;52.540;13.290;2023-04-09T07:24:18;6.20;99.90
6439;DHT22;3252;52.540;13.290;2023-04-09T07:26:21;6.30;99.90
6439;DHT22;3252;52.540;13.290;2023-04-09T07:28:23;6.30;99.90
6439;DHT22;3252;52.540;13.290;2023-04-09T07:30:26;6.40;99.90
6439;DHT22;3252;52.540;13.290;2023-04-09T07:32:29;6.50;99.90
6439;DHT22;3252;52.540;13.290;2023-04-09T07:34:31;6.60;99.90
6439;DHT22;3252;52.540;13.290;2023-04-09T07:36:34;6.70;99.90
6439;DHT22;3252;52.540;13.290;2023-04-09T07:38:36;6.70;99.90
6439;DHT22;3252;52.540;13.290;2023-04-09T07:40:38;6.70;99.90
6439;DHT22;3252;52.540;13.290;2023-04-09T07:42:40;6.70;99.90
6439;DHT22;3252;52.540;13.290;2023-04-09T07:44:42;6.80;99.90
6439;DHT22;3252;52.540;13.290;2023-04-09T07:46:45;6.90;99.90
6439;DHT22;3252;52.540;13.290;2023-04-09T07:48:49;6.90;99.90
6439;DHT22;3252;52.540;13.290;2023-04-09T07:50:51;6.90;99.90
6439;DHT22;3252;52.540;13.290;2023-04-09T07:52:54;6.90;99.90
6439;DHT22;3252;52.540;13.290;2023-04-09T07:54:56;6.90;99.90
6439;DHT22;3252;52.540;13.290;2023-04-09T07:56:58;7.00;99.90
6439;DHT22;3252;52.540;13.290;2023-04-09T07:59:01;7.00;99.90
6439;DHT22;3252;52.540;13.290;2023-04-09T08:01:03;7.10;99.90
6439;DHT22;3252;52.540;13.290;2023-04-09T08:03:06;7.10;99.90
6439;DHT22;3252;52.540;13.290;2023-04-09T08:05:10;7.10;99.90
6439;DHT22;3252;52.540;13.290;2023-04-09T08:07:12;7.20;99.90
6439;DHT22;3252;52.540;13.290;2023-04-09T08:09:14;7.20;99.90
6439;DHT22;3252;52.540;13.290;2023-04-09T08:11:17;7.30;99.90
6439;DHT22;3252;52.540;13.290;2023-04-09T08:13:25;7.30;99.90
6439;DHT22;3252;52.540;13.290;2023-04-09T08:15:27;7.40;99.90
6439;DHT22;3252;52.540;13.290;2023-04-09T08:17:29;7.50;99.90
6439;DHT22;3252;52.540;13.290;2023-04-09T08:19:31;7.50;99.90
6439;DHT22;3252;52.540;13.290;2023-04-09T08:21:37;7.60;99.90
6439;DHT22;3252;52.540;13.290;2023-04-09T08:23:40;7.70;99.90
6439;DHT22;3252;52.540;13.290;2023-04-09T08:25:42;7.70;99.90
6439;DHT22;3252;52.540;13.290;2023-04-09T08:27:44;7.80;99.90
6439;DHT22;3252;52.540;13.290;2023-04-09T08:29:46;7.80;99.90
6439;DHT22;3252;52.540;13.290;2023-04-09T08:31:49;7.80;99.90
6439;DHT22;3252;52.540;13.290;2023-04-09T08:33:51;7.80;99.90
6439;DHT22;3252;52.540;13.290;2023-04-09T08:35:54;7.90;99.90
6439;DHT22;3252;52.540;13.290;2023-04-09T08:37:58;7.90;99.90
6439;DHT22;3252;52.540;13.290;2023-04-09T08:40:00;7.70;99.90
6439;DHT22;3252;52.540;13.290;2023-04-09T08:42:05;7.50;99.90
6439;DHT22;3252;52.540;13.290;2023-04-09T08:44:07;7.40;99.90
6439;DHT22;3252;52.540;13.290;2023-04-09T08:46:10;7.60;99.90
6439;DHT22;3252;52.540;13.290;2023-04-09T08:48:15;7.70;99.90
6439;DHT22;3252;52.540;13.290;2023-04-09T08:50:19;7.80;99.90
6439;DHT22;3252;52.540;13.290;2023-04-09T08:52:30;8.00;99.90
6439;DHT22;3252;52.540;13.290;2023-04-09T08:54:34;8.10;99.90
6439;DHT22;3252;52.540;13.290;2023-04-09T08:56:36;8.10;99.90
6439;DHT22;3252;52.540;13.290;2023-04-09T08:58:41;8.10;99.90
6439;DHT22;3252;52.540;13.290;2023-04-09T09:00:44;8.20;99.90
6439;DHT22;3252;52.540;13.290;2023-04-09T09:03:03;8.30;99.90
6439;DHT22;3252;52.540;13.290;2023-04-09T09:05:06;8.40;99.90
6439;DHT22;3252;52.540;13.290;2023-04-09T09:07:08;8.40;99.90
6439;DHT22;3252;52.540;13.290;2023-04-09T09:09:12;8.40;99.90
6439;DHT22;3252;52.540;13.290;2023-04-09T09:11:24;8.40;99.90
6439;DHT22;3252;52.540;13.290;2023-04-09T09:13:27;8.50;99.90
6439;DHT22;3252;52.540;13.290;2023-04-09T09:15:29;8.40;99.90
6439;DHT22;3252;52.540;13.290;2023-04-09T09:17:33;8.40;99.90
6439;DHT22;3252;52.540;13.290;2023-04-09T09:19:35;8.50;99.90
6439;DHT22;3252;52.540;13.290;2023-04-09T09:21:38;8.60;99.90
6439;DHT22;3252;52.540;13.290;2023-04-09T09:23:41;8.70;99.90
6439;DHT22;3252;52.540;13.290;2023-04-09T09:25:44;8.70;99.90
6439;DHT22;3252;52.540;13.290;2023-04-09T09:27:48;8.70;99.90
6439;DHT22;3252;52.540;13.290;2023-04-09T09:29:50;8.80;99.90
6439;DHT22;3252;52.540;13.290;2023-04-09T09:31:53;9.00;99.90
6439;DHT22;3252;52.540;13.290;2023-04-09T09:33:56;9.20;99.90
6439;DHT22;3252;52.540;13.290;2023-04-09T09:36:01;9.10;99.90
6439;DHT22;3252;52.540;13.290;2023-04-09T09:38:03;9.10;99.90
6439;DHT22;3252;52.540;13.290;2023-04-09T09:40:07;9.00;99.90
6439;DHT22;3252;52.540;13.290;2023-04-09T09:42:09;9.10;99.90
6439;DHT22;3252;52.540;13.290;2023-04-09T09:44:29;9.20;99.90
6439;DHT22;3252;52.540;13.290;2023-04-09T09:46:35;9.40;99.90
6439;DHT22;3252;52.540;13.290;2023-04-09T09:48:38;9.50;99.90
6439;DHT22;3252;52.540;13.290;2023-04-09T09:50:41;9.70;99.90
6439;DHT22;3252;52.540;13.290;2023-04-09T09:52:44;10.40;99.90
6439;DHT22;3252;52.540;13.290;2023-04-09T09:54:50;11.50;99.90
6439;DHT22;3252;52.540;13.290;2023-04-09T09:56:54;12.10;99.90
6439;DHT22;3252;52.540;13.290;2023-04-09T09:59:04;12.00;99.90
6439;DHT22;3252;52.540;13.290;2023-04-09T10:01:11;11.80;99.90
6439;DHT22;3252;52.540;13.290;2023-04-09T10:03:18;11.30;99.90
6439;DHT22;3252;52.540;13.290;2023-04-09T10:05:22;10.90;99.90
6439;DHT22;3252;52.540;13.290;2023-04-09T10:07:27;10.50;99.90
6439;DHT22;3252;52.540;13.290;2023-04-09T10:09:30;10.70;99.90
6439;DHT22;3252;52.540;13.290;2023-04-09T10:11:33;10.20;99.90
6439;DHT22;3252;52.540;13.290;2023-04-09T10:13:39;10.20;99.90
6439;DHT22;3252;52.540;13.290;2023-04-09T10:15:43;10.40;99.90
6439;DHT22;3252;52.540;13.290;2023-04-09T10:17:48;10.60;99.90
6439;DHT22;3252;52.540;13.290;2023-04-09T10:19:55;10.40;99.90
6439;DHT22;3252;52.540;13.290;2023-04-09T10:22:04;10.20;99.90
6439;DHT22;3252;52.540;13.290;2023-04-09T10:24:08;10.30;99.90
6439;DHT22;3252;52.540;13.290;2023-04-09T10:26:10;10.40;99.90
6439;DHT22;3252;52.540;13.290;2023-04-09T10:28:15;10.40;99.90
6439;DHT22;3252;52.540;13.290;2023-04-09T10:30:31;10.30;99.90
6439;DHT22;3252;52.540;13.290;2023-04-09T10:32:34;10.20;99.90
6439;DHT22;3252;52.540;13.290;2023-04-09T10:34:40;10.20;99.90
6439;DHT22;3252;52.540;13.290;2023-04-09T10:36:43;10.50;99.90
6439;DHT22;3252;52.540;13.290;2023-04-09T10:38:45;10.40;99.90
6439;DHT22;3252;52.540;13.290;2023-04-09T10:40:49;10.60;99.90
6439;DHT22;3252;52.540;13.290;2023-04-09T10:42:51;10.80;99.90
6439;DHT22;3252;52.540;13.290;2023-04-09T10:45:07;10.80;99.90
6439;DHT22;3252;52.540;13.290;2023-04-09T10:47:10;11.10;99.90
6439;DHT22;3252;52.540;13.290;2023-04-09T10:49:15;11.90;99.90
6439;DHT22;3252;52.540;13.290;2023-04-09T10:51:19;12.20;99.90
6439;DHT22;3252;52.540;13.290;2023-04-09T10:53:22;12.10;99.90
6439;DHT22;3252;52.540;13.290;2023-04-09T10:55:34;12.00;99.90
6439;DHT22;3252;52.540;13.290;2023-04-09T10:57:37;12.20;99.90
6439;DHT22;3252;52.540;13.290;2023-04-09T10:59:41;12.50;99.90
6439;DHT22;3252;52.540;13.290;2023-04-09T11:01:51;12.60;99.90
6439;DHT22;3252;52.540;13.290;2023-04-09T11:04:07;12.40;99.00
6439;DHT22;3252;52.540;13.290;2023-04-09T11:06:10;12.20;99.70
6439;DHT22;3252;52.540;13.290;2023-04-09T11:08:15;12.50;99.90
6439;DHT22;3252;52.540;13.290;2023-04-09T11:10:18;12.80;99.40
6439;DHT22;3252;52.540;13.290;2023-04-09T11:12:20;12.90;99.60
6439;DHT22;3252;52.540;13.290;2023-04-09T11:14:22;13.20;99.00
6439;DHT22;3252;52.540;13.290;2023-04-09T11:16:25;13.00;98.70
6439;DHT22;3252;52.540;13.290;2023-04-09T11:18:29;14.60;96.70
6439;DHT22;3252;52.540;13.290;2023-04-09T11:20:34;15.60;94.00
6439;DHT22;3252;52.540;13.290;2023-04-09T11:22:37;15.90;88.20
6439;DHT22;3252;52.540;13.290;2023-04-09T11:24:41;16.90;84.60
6439;DHT22;3252;52.540;13.290;2023-04-09T11:26:44;16.80;81.70
6439;DHT22;3252;52.540;13.290;2023-04-09T11:28:48;17.00;79.80
6439;DHT22;3252;52.540;13.290;2023-04-09T11:30:50;16.30;84.10
6439;DHT22;3252;52.540;13.290;2023-04-09T11:32:53;15.10;84.60
6439;DHT22;3252;52.540;13.290;2023-04-09T11:34:55;13.70;93.40
6439;DHT22;3252;52.540;13.290;2023-04-09T11:36:58;12.90;96.30
6439;DHT22;3252;52.540;13.290;2023-04-09T11:39:05;12.10;97.70
6439;DHT22;3252;52.540;13.290;2023-04-09T11:41:09;12.20;98.20
6439;DHT22;3252;52.540;13.290;2023-04-09T11:43:13;12.50;99.30
6439;DHT22;3252;52.540;13.290;2023-04-09T11:45:17;12.40;99.50
6439;DHT22;3252;52.540;13.290;2023-04-09T11:47:20;12.40;98.50
6439;DHT22;3252;52.540;13.290;2023-04-09T11:49:23;12.30;99.90
6439;DHT22;3252;52.540;13.290;2023-04-09T11:51:26;12.30;99.90
6439;DHT22;3252;52.540;13.290;2023-04-09T11:53:29;12.30;99.90
6439;DHT22;3252;52.540;13.290;2023-04-09T11:55:32;12.40;99.90
6439;DHT22;3252;52.540;13.290;2023-04-09T11:57:39;12.20;98.40
6439;DHT22;3252;52.540;13.290;2023-04-09T11:59:42;12.10;99.60
6439;DHT22;3252;52.540;13.290;2023-04-09T12:01:48;12.20;99.90
6439;DHT22;3252;52.540;13.290;2023-04-09T12:03:52;12.10;99.20
6439;DHT22;3252;52.540;13.290;2023-04-09T12:05:54;12.00;99.50
6439;DHT22;3252;52.540;13.290;2023-04-09T12:07:58;12.00;99.90
6439;DHT22;3252;52.540;13.290;2023-04-09T12:10:05;12.20;99.60
6439;DHT22;3252;52.540;13.290;2023-04-09T12:12:07;12.40;99.60
6439;DHT22;3252;52.540;13.290;2023-04-09T12:14:13;12.30;99.50
6439;DHT22;3252;52.540;13.290;2023-04-09T12:16:18;12.30;98.80
6439;DHT22;3252;52.540;13.290;2023-04-09T12:18:21;12.10;98.60
6439;DHT22;3252;52.540;13.290;2023-04-09T12:20:28;12.20;98.40
6439;DHT22;3252;52.540;13.290;2023-04-09T12:22:31;12.30;99.10
6439;DHT22;3252;52.540;13.290;2023-04-09T12:24:33;12.50;99.10
6439;DHT22;3252;52.540;13.290;2023-04-09T12:26:35;12.30;97.70
6439;DHT22;3252;52.540;13.290;2023-04-09T12:28:37;12.30;98.30
6439;DHT22;3252;52.540;13.290;2023-04-09T12:30:41;12.40;98.70
6439;DHT22;3252;52.540;13.290;2023-04-09T12:32:44;12.50;99.10
6439;DHT22;3252;52.540;13.290;2023-04-09T12:34:46;12.70;98.60
6439;DHT22;3252;52.540;13.290;2023-04-09T12:36:49;12.70;97.70
6439;DHT22;3252;52.540;13.290;2023-04-09T12:38:52;12.80;98.10
6439;DHT22;3252;52.540;13.290;2023-04-09T12:40:54;12.90;99.30
6439;DHT22;3252;52.540;13.290;2023-04-09T12:42:56;12.40;97.20
6439;DHT22;3252;52.540;13.290;2023-04-09T12:44:58;12.50;97.30
6439;DHT22;3252;52.540;13.290;2023-04-09T12:47:02;12.30;97.90
6439;DHT22;3252;52.540;13.290;2023-04-09T12:49:04;12.40;98.40
6439;DHT22;3252;52.540;13.290;2023-04-09T12:51:07;12.60;98.90
6439;DHT22;3252;52.540;13.290;2023-04-09T12:53:10;12.80;99.90
6439;DHT22;3252;52.540;13.290;2023-04-09T12:55:13;13.00;99.90
6439;DHT22;3252;52.540;13.290;2023-04-09T12:57:15;13.20;96.90
6439;DHT22;3252;52.540;13.290;2023-04-09T12:59:17;13.20;97.70
6439;DHT22;3252;52.540;13.290;2023-04-09T13:01:19;13.30;97.90
6439;DHT22;3252;52.540;13.290;2023-04-09T13:03:23;13.30;96.50
6439;DHT22;3252;52.540;13.290;2023-04-09T13:05:25;13.40;95.90
6439;DHT22;3252;52.540;13.290;2023-04-09T13:07:27;13.50;98.20
6439;DHT22;3252;52.540;13.290;2023-04-09T13:09:30;13.60;96.90
6439;DHT22;3252;52.540;13.290;2023-04-09T13:11:32;13.70;95.80
6439;DHT22;3252;52.540;13.290;2023-04-09T13:13:34;13.70;95.70
6439;DHT22;3252;52.540;13.290;2023-04-09T13:15:37;13.90;94.70
6439;DHT22;3252;52.540;13.290;2023-04-09T13:17:39;13.90;95.40
6439;DHT22;3252;52.540;13.290;2023-04-09T13:19:42;14.00;96.60
6439;DHT22;3252;52.540;13.290;2023-04-09T13:21:45;14.10;96.00
6439;DHT22;3252;52.540;13.290;2023-04-09T13:23:47;14.30;95.20
6439;DHT22;3252;52.540;13.290;2023-04-09T13:25:49;14.20;91.90
6439;DHT22;3252;52.540;13.290;2023-04-09T13:27:51;14.10;92.00